Time;durP1;ratioP1;P1;durP2;ratioP2;P2;SDS_P1;SDS_P2;PMS_P1;PMS_P2;Temp;Humidity;BMP_temperature;BMP_pressure;BME280_temperature;BME280_humidity;BME280_pressure;Samples;Min_cycle;Max_cycle;Signal;HPM_P1;HPM_P2
2023/10/11 00:00:48;;;;;;;;;;;15.20;56.60;;;10.91;100.00;95979.25;5012262;28;19917;-46
2023/10/11 00:05:50;;;;;;;;;;;15.20;56.60;;;10.88;100.00;95977.91;5003708;28;19948;-46
2023/10/11 00:08:17;;;;;;;;;;;15.10;56.50;;;10.80;100.00;95971.16;5012417;28;19966;-50
2023/10/11 00:10:53;;;;;;;;;;;15.10;56.70;;;10.81;100.00;95977.31;5012063;28;19913;-48
2023/10/11 00:13:21;;;;;;;;;;;15.10;56.70;;;10.80;100.00;95975.69;5012236;28;20004;-50
2023/10/11 00:15:49;;;;;;;;;;;15.00;56.80;;;10.77;100.00;95973.56;5012505;28;19959;-47
2023/10/11 00:18:30;;;;;;;;;;;15.00;56.80;;;10.74;100.00;95980.19;5011823;28;19909;-47
2023/10/11 00:20:59;;;;;;;;;;;15.00;56.90;;;10.74;100.00;95979.38;5012469;28;19909;-49
2023/10/11 00:23:27;;;;;;;;;;;15.00;57.00;;;10.72;100.00;95977.00;5007586;28;20000;-48
2023/10/11 00:26:00;;;;;;;;;;;14.90;57.00;;;10.74;100.00;95974.84;5012480;28;20050;-52
2023/10/11 00:28:26;;;;;;;;;;;14.90;57.10;;;10.73;100.00;95975.94;5010986;28;19966;-47
2023/10/11 00:31:00;;;;;;;;;;;14.90;57.20;;;10.68;100.00;95970.56;5003140;28;19909;-49
2023/10/11 00:33:31;;;;;;;;;;;14.90;57.20;;;10.66;100.00;95967.34;5005826;28;19916;-46
2023/10/11 00:36:01;;;;;;;;;;;14.90;57.20;;;10.63;100.00;95966.00;5010365;28;19917;-51
2023/10/11 00:38:27;;;;;;;;;;;14.90;57.20;;;10.61;100.00;95967.31;5008842;28;19912;-53
2023/10/11 00:43:39;;;;;;;;;;;14.80;57.20;;;10.58;100.00;95954.50;5011730;28;20055;-53
2023/10/11 00:46:08;;;;;;;;;;;14.80;57.30;;;10.59;100.00;95956.09;5012401;28;19916;-47
2023/10/11 00:48:37;;;;;;;;;;;14.80;58.00;;;10.58;100.00;95957.16;5011339;28;19913;-50
2023/10/11 00:51:07;;;;;;;;;;;14.80;57.40;;;10.56;100.00;95959.25;5012229;28;19909;-51
2023/10/11 00:53:37;;;;;;;;;;;14.80;57.50;;;10.55;100.00;95960.34;5010934;28;19920;-51
2023/10/11 00:56:05;;;;;;;;;;;14.80;58.20;;;10.53;100.00;95957.13;5010517;28;19963;-51
2023/10/11 00:58:32;;;;;;;;;;;14.80;57.60;;;10.50;100.00;95953.13;5011692;28;20359;-51
2023/10/11 01:01:03;;;;;;;;;;;14.70;57.60;;;10.46;100.00;95949.34;5009473;28;19916;-48
2023/10/11 01:03:33;;;;;;;;;;;14.80;57.60;;;10.44;100.00;95964.78;5011630;28;20004;-49
2023/10/11 01:06:00;;;;;;;;;;;14.70;57.60;;;10.41;100.00;95955.44;5010071;28;19951;-47
2023/10/11 01:08:48;;;;;;;;;;;14.70;57.70;;;10.39;100.00;95960.22;5004961;28;19913;-48
2023/10/11 01:11:15;;;;;;;;;;;14.70;57.80;;;10.42;100.00;95954.38;5011018;28;20019;-49
2023/10/11 01:13:50;;;;;;;;;;;14.70;57.80;;;10.44;100.00;95953.34;5011367;28;19997;-46
2023/10/11 01:16:20;;;;;;;;;;;14.60;57.80;;;10.40;100.00;95951.19;5008036;28;19913;-47
2023/10/11 01:18:46;;;;;;;;;;;14.60;57.90;;;10.45;100.00;95947.75;5008108;28;19918;-46
2023/10/11 01:21:14;;;;;;;;;;;14.60;57.90;;;10.45;100.00;95946.94;5010796;28;19909;-45
2023/10/11 01:23:40;;;;;;;;;;;14.60;57.90;;;10.42;100.00;95949.06;5010469;28;19909;-48
2023/10/11 01:26:07;;;;;;;;;;;14.60;58.00;;;10.45;100.00;95958.41;5011077;28;19920;-45
2023/10/11 01:28:40;;;;;;;;;;;14.60;58.10;;;10.40;100.00;95953.84;5011038;28;19913;-50
2023/10/11 01:31:08;;;;;;;;;;;14.60;58.00;;;10.36;100.00;95958.06;5002234;28;19996;-45
2023/10/11 01:33:43;;;;;;;;;;;14.60;58.10;;;10.35;100.00;95947.66;5005374;28;20364;-48
2023/10/11 01:36:12;;;;;;;;;;;14.60;58.20;;;10.37;100.00;95948.19;5002149;28;19992;-45
2023/10/11 01:38:48;;;;;;;;;;;14.60;58.10;;;10.36;100.00;95950.06;4996429;28;19957;-45
2023/10/11 01:41:28;;;;;;;;;;;14.60;58.20;;;10.37;100.00;95950.88;5000925;28;19921;-45
2023/10/11 01:43:56;;;;;;;;;;;14.50;58.20;;;10.38;100.00;95945.28;5006572;28;20291;-46
2023/10/11 01:46:26;;;;;;;;;;;14.60;58.30;;;10.35;100.00;95950.34;4996428;28;19937;-45
2023/10/11 01:48:54;;;;;;;;;;;14.60;58.30;;;10.28;100.00;95942.56;5008456;28;19999;-45
2023/10/11 01:51:27;;;;;;;;;;;14.60;58.30;;;10.29;100.00;95941.50;5001615;28;19909;-45
2023/10/11 01:54:01;;;;;;;;;;;14.50;58.30;;;10.20;100.00;95943.78;5002979;28;19913;-45
2023/10/11 01:56:30;;;;;;;;;;;14.50;58.40;;;10.18;100.00;95937.09;5007388;28;19909;-50
2023/10/11 01:58:56;;;;;;;;;;;14.50;58.40;;;10.12;100.00;95936.28;5007664;28;19917;-46
2023/10/11 02:01:30;;;;;;;;;;;14.50;58.40;;;10.10;100.00;95930.38;5009743;28;19913;-45
2023/10/11 02:03:59;;;;;;;;;;;14.40;58.90;;;10.04;100.00;95933.25;4998287;28;20284;-46
2023/10/11 02:06:31;;;;;;;;;;;14.40;58.40;;;10.00;100.00;95932.97;5003828;28;19913;-46
2023/10/11 02:08:58;;;;;;;;;;;14.40;58.40;;;9.96;100.00;95932.66;4999124;28;19913;-46
2023/10/11 02:11:25;;;;;;;;;;;14.30;59.00;;;9.96;100.00;95932.66;5004364;28;20383;-45
2023/10/11 02:13:52;;;;;;;;;;;14.30;58.50;;;9.93;100.00;95937.66;5010547;28;19979;-46
2023/10/11 02:16:19;;;;;;;;;;;14.30;58.60;;;9.86;100.00;95929.88;5010841;28;20083;-45
2023/10/11 02:18:53;;;;;;;;;;;14.20;58.60;;;9.87;100.00;95930.69;5009780;28;20449;-46
2023/10/11 02:21:19;;;;;;;;;;;14.20;58.60;;;9.86;100.00;95929.88;5011187;28;19909;-46
2023/10/11 02:23:46;;;;;;;;;;;14.10;58.60;;;9.84;100.00;95936.50;5008900;28;19909;-46
2023/10/11 02:26:16;;;;;;;;;;;14.10;58.60;;;9.81;100.00;95932.50;5010408;28;19909;-45
2023/10/11 02:28:44;;;;;;;;;;;14.10;58.70;;;9.77;100.00;95935.91;5009981;28;19913;-48
2023/10/11 02:31:14;;;;;;;;;;;14.10;58.80;;;9.75;100.00;95935.38;5003033;28;20071;-50
2023/10/11 02:33:40;;;;;;;;;;;14.10;58.80;;;9.71;100.00;95937.69;5010388;28;19916;-49
2023/10/11 02:36:10;;;;;;;;;;;14.10;58.80;;;9.68;100.00;95933.72;5012466;28;19909;-45
2023/10/11 02:38:41;;;;;;;;;;;14.00;58.80;;;9.68;100.00;95938.19;5014822;28;19910;-46
2023/10/11 02:41:08;;;;;;;;;;;14.00;58.90;;;9.63;100.00;95938.16;5012388;28;19920;-46
2023/10/11 02:43:47;;;;;;;;;;;14.00;59.00;;;9.63;100.00;95938.16;5014365;28;19917;-45
2023/10/11 02:46:14;;;;;;;;;;;13.90;59.00;;;9.63;100.00;95940.81;5014191;28;19998;-46
2023/10/11 02:48:46;;;;;;;;;;;14.00;59.10;;;9.60;100.00;95936.81;5012272;28;19913;-48
2023/10/11 02:51:17;;;;;;;;;;;13.90;59.00;;;9.62;100.00;95936.53;5007827;28;19947;-45
2023/10/11 02:53:46;;;;;;;;;;;13.90;59.10;;;9.59;100.00;95927.22;5010798;28;19963;-45
2023/10/11 02:56:14;;;;;;;;;;;13.90;59.20;;;9.60;100.00;95936.81;5013561;28;19916;-46
2023/10/11 02:58:40;;;;;;;;;;;13.90;59.20;;;9.58;100.00;95933.59;5012851;28;20007;-51
2023/10/11 03:01:17;;;;;;;;;;;13.90;59.20;;;9.56;100.00;95935.72;5004232;28;20340;-46
2023/10/11 03:03:43;;;;;;;;;;;13.90;59.30;;;9.50;100.00;95939.34;5013903;28;19909;-48
2023/10/11 03:06:10;;;;;;;;;;;13.90;59.30;;;9.45;100.00;95948.06;5009721;28;19909;-46
2023/10/11 03:08:37;;;;;;;;;;;13.80;59.30;;;9.39;100.00;95946.41;5013481;28;20012;-54
2023/10/11 03:11:08;;;;;;;;;;;13.80;59.30;;;9.41;100.00;95949.63;5011992;28;19913;-53
2023/10/11 03:13:43;;;;;;;;;;;13.80;59.30;;;9.41;100.00;95944.31;5007818;28;19991;-52
2023/10/11 03:16:17;;;;;;;;;;;13.80;59.40;;;9.41;100.00;95944.31;5013762;28;20003;-51
2023/10/11 03:18:46;;;;;;;;;;;13.70;59.40;;;9.41;100.00;95944.31;5010987;28;19909;-46
2023/10/11 03:21:17;;;;;;;;;;;13.70;59.50;;;9.41;100.00;95949.63;5013888;28;19909;-51
2023/10/11 03:23:47;;;;;;;;;;;13.70;59.50;;;9.43;100.00;95944.03;5013469;28;19940;-50
2023/10/11 03:26:31;;;;;;;;;;;13.70;60.20;;;9.40;100.00;95945.38;5013432;28;19909;-51
2023/10/11 03:29:05;;;;;;;;;;;13.70;59.60;;;9.35;100.00;95947.94;5012764;28;19917;-51
2023/10/11 03:31:34;;;;;;;;;;;13.70;59.60;;;9.34;100.00;95941.03;5013529;28;20329;-47
2023/10/11 03:34:10;;;;;;;;;;;13.70;59.70;;;9.32;100.00;95940.47;5012541;28;20376;-48
2023/10/11 03:36:49;;;;;;;;;;;13.70;59.70;;;9.33;100.00;95938.59;5012872;28;19932;-54
2023/10/11 03:44:45;;;;;;;;;;;13.60;59.80;;;9.18;100.00;95949.84;5012902;28;19909;-47
2023/10/11 03:47:24;;;;;;;;;;;13.50;59.70;;;9.13;100.00;95947.16;5011539;28;19962;-45
2023/10/11 03:52:30;;;;;;;;;;;13.50;59.80;;;9.07;100.00;95943.59;5013047;28;19988;-47
2023/10/11 03:55:09;;;;;;;;;;;13.50;59.80;;;9.15;100.00;95937.88;5011976;28;19913;-45
2023/10/11 03:57:43;;;;;;;;;;;13.50;60.00;;;9.18;100.00;95939.22;5013293;28;19909;-45
2023/10/11 04:02:45;;;;;;;;;;;13.40;60.10;;;9.18;100.00;95937.38;5008255;28;19909;-47
2023/10/11 04:05:11;;;;;;;;;;;13.40;60.10;;;9.18;100.00;95942.69;5011515;28;19919;-47
2023/10/11 04:07:37;;;;;;;;;;;13.40;60.20;;;9.19;100.00;95941.63;5012696;28;20015;-48
2023/10/11 04:10:09;;;;;;;;;;;13.50;60.30;;;9.18;100.00;95942.69;5012488;28;20305;-48
2023/10/11 04:12:38;;;;;;;;;;;13.50;60.30;;;9.20;100.00;95937.91;5012156;28;19909;-45
2023/10/11 04:15:17;;;;;;;;;;;13.50;60.40;;;9.20;100.00;95940.59;5012173;28;19909;-46
2023/10/11 04:17:48;;;;;;;;;;;13.50;60.40;;;9.20;100.00;95934.47;5009453;28;19959;-46
2023/10/11 04:20:17;;;;;;;;;;;13.50;60.40;;;9.20;100.00;95943.25;5012500;28;19916;-47
2023/10/11 04:25:39;;;;;;;;;;;13.50;60.50;;;9.20;100.00;95943.25;5001654;28;19908;-45
2023/10/11 04:28:07;;;;;;;;;;;13.50;60.50;;;9.19;100.00;95946.97;5012033;28;19924;-45
2023/10/11 04:30:41;;;;;;;;;;;13.50;60.60;;;9.18;100.00;95944.53;5011709;28;19914;-45
2023/10/11 04:33:12;;;;;;;;;;;13.50;61.30;;;9.21;100.00;95944.88;5012255;28;19923;-48
2023/10/11 04:36:02;;;;;;;;;;;13.50;60.60;;;9.37;100.00;95943.19;5011070;28;19916;-47
2023/10/11 04:38:32;;;;;;;;;;;13.50;60.70;;;9.52;100.00;95949.72;5011847;28;20040;-50
2023/10/11 04:41:02;;;;;;;;;;;13.50;61.00;;;9.50;100.00;95948.13;5011629;28;19971;-49
2023/10/11 04:43:29;;;;;;;;;;;13.60;61.10;;;9.42;100.00;95948.56;5008621;23;19974;-47
2023/10/11 04:46:00;;;;;;;;;;;13.60;61.00;;;9.48;100.00;95949.44;4975355;28;19914;-49
2023/10/11 04:48:32;;;;;;;;;;;13.70;61.10;;;9.50;100.00;95945.47;4987105;28;19949;-51
2023/10/11 04:51:04;;;;;;;;;;;13.70;61.00;;;9.57;100.00;95950.59;4989188;28;19916;-48
2023/10/11 04:53:54;;;;;;;;;;;13.70;61.00;;;9.62;100.00;95945.34;4988802;28;19909;-46
2023/10/11 05:04:31;;;;;;;;;;;13.90;61.00;;;9.62;100.00;95952.50;4991498;28;19967;-46
2023/10/11 05:06:57;;;;;;;;;;;13.90;60.90;;;9.63;100.00;95957.59;4988805;28;20281;-48
2023/10/11 05:09:38;;;;;;;;;;;13.90;60.90;;;9.66;100.00;95953.63;4991556;28;19914;-47
2023/10/11 05:12:19;;;;;;;;;;;13.90;60.80;;;9.63;100.00;95962.09;4988742;28;19913;-52
2023/10/11 05:52:25;;;;;;;;;;;13.70;60.60;;;9.15;100.00;95976.91;4971505;28;20418;-46
2023/10/11 05:54:53;;;;;;;;;;;13.60;60.60;;;9.13;100.00;95982.50;4967244;28;19964;-50
2023/10/11 05:57:23;;;;;;;;;;;13.70;60.60;;;9.14;100.00;95984.09;4972089;28;19956;-50
2023/10/11 05:59:49;;;;;;;;;;;13.60;60.60;;;9.14;100.00;95985.94;4966900;28;19917;-46
2023/10/11 06:02:18;;;;;;;;;;;13.70;60.60;;;9.14;100.00;95988.59;4969783;28;19918;-50
2023/10/11 06:04:45;;;;;;;;;;;13.60;60.60;;;9.22;100.00;95996.97;4971137;28;19952;-48
2023/10/11 06:07:15;;;;;;;;;;;13.60;60.60;;;9.20;100.00;95992.94;4971487;28;19917;-46
2023/10/11 06:09:46;;;;;;;;;;;13.70;60.70;;;9.18;100.00;95993.19;4978711;28;19915;-49
2023/10/11 06:12:25;;;;;;;;;;;13.70;60.70;;;9.18;100.00;95995.88;4975629;28;19909;-49
2023/10/11 06:14:57;;;;;;;;;;;13.70;60.70;;;9.31;100.00;96002.66;4975284;28;19910;-49
2023/10/11 06:17:48;;;;;;;;;;;13.70;60.80;;;9.38;100.00;96008.59;4970468;28;19916;-50
2023/10/11 06:20:26;;;;;;;;;;;13.80;60.90;;;9.46;100.00;96002.03;4976039;28;20407;-48
2023/10/11 06:22:56;;;;;;;;;;;13.90;61.00;;;9.71;100.00;96001.53;4974409;28;19910;-49
2023/10/11 06:25:49;;;;;;;;;;;14.00;61.10;;;9.84;100.00;96009.16;4967663;28;20262;-46
2023/10/11 06:28:13;;;;;;;;;;;14.00;61.20;;;9.91;100.00;96004.44;4973494;28;20709;-48
2023/10/11 06:30:43;;;;;;;;;;;14.20;61.10;;;10.01;100.00;96013.59;4974532;28;19952;-49
2023/10/11 06:33:13;;;;;;;;;;;14.30;61.40;;;10.12;100.00;96005.47;4974618;28;19914;-49
2023/10/11 06:35:44;;;;;;;;;;;14.40;61.00;;;10.19;100.00;96011.41;4974562;28;19940;-50
2023/10/11 06:38:12;;;;;;;;;;;14.50;60.90;;;10.26;100.00;96015.72;4974935;28;19910;-48
2023/10/11 06:40:48;;;;;;;;;;;14.60;60.70;;;10.32;100.00;96020.88;4975410;28;19913;-50
2023/10/11 06:43:15;;;;;;;;;;;14.70;60.70;;;10.38;100.00;96011.88;4973946;28;20486;-49
2023/10/11 06:45:42;;;;;;;;;;;14.80;60.70;;;10.46;100.00;96010.59;4975522;28;19941;-51
2023/10/11 06:48:16;;;;;;;;;;;14.80;60.60;;;10.53;100.00;96011.22;4974728;28;20025;-48
2023/10/11 06:50:42;;;;;;;;;;;15.00;60.60;;;10.58;100.00;96005.09;4973197;28;20005;-47
2023/10/11 06:53:10;;;;;;;;;;;15.00;60.40;;;10.60;100.00;96013.66;4972108;28;20384;-48
2023/10/11 06:56:16;;;;;;;;;;;15.10;60.40;;;10.61;100.00;96010.72;4966607;28;19948;-50
2023/10/11 06:58:43;;;;;;;;;;;15.10;60.30;;;10.67;100.00;96010.78;4970388;28;19910;-49
2023/10/11 07:01:10;;;;;;;;;;;15.20;60.30;;;10.74;100.00;96014.81;4981360;28;20355;-49
2023/10/11 07:03:39;;;;;;;;;;;15.30;60.30;;;10.82;100.00;96017.03;4974154;28;19952;-48
2023/10/11 07:06:12;;;;;;;;;;;15.40;60.30;;;10.92;100.00;96020.84;4973170;28;19916;-49
2023/10/11 07:08:49;;;;;;;;;;;15.50;60.30;;;10.99;100.00;96016.06;4980401;28;19967;-48
2023/10/11 07:11:40;;;;;;;;;;;15.50;60.20;;;11.09;100.00;96021.47;4979480;28;19925;-50
2023/10/11 07:14:15;;;;;;;;;;;15.70;60.10;;;11.25;100.00;96030.38;4972921;28;19909;-49
2023/10/11 07:16:44;;;;;;;;;;;15.90;60.00;;;11.44;100.00;96020.91;4974135;28;19997;-48
2023/10/11 07:19:11;;;;;;;;;;;16.10;59.90;;;11.66;100.00;96020.75;4972107;28;20326;-48
2023/10/11 07:26:59;;;;;;;;;;;16.80;59.70;;;12.25;100.00;96012.41;4975324;28;19909;-49
2023/10/11 07:29:26;;;;;;;;;;;17.00;59.50;;;12.54;100.00;96019.94;4973792;28;19913;-49
2023/10/11 07:31:53;;;;;;;;;;;17.40;59.30;;;12.96;100.00;96021.53;4975328;28;19910;-50
2023/10/11 07:34:21;;;;;;;;;;;17.90;59.10;;;13.50;100.00;96014.78;4974910;28;19948;-48
2023/10/11 07:36:51;;;;;;;;;;;18.40;58.90;;;14.03;100.00;96020.47;4973987;28;19910;-52
2023/10/11 07:39:20;;;;;;;;;;;19.00;58.60;;;14.61;99.65;96018.00;4975347;28;19910;-51
2023/10/11 07:41:48;;;;;;;;;;;19.50;58.30;;;15.12;92.29;96014.91;4974448;28;19910;-51
2023/10/11 07:44:18;;;;;;;;;;;20.10;58.00;;;15.70;88.89;96019.44;4974675;28;19921;-52
2023/10/11 07:46:48;;;;;;;;;;;20.60;57.60;;;16.27;84.98;96022.22;4974553;28;19915;-53
2023/10/11 07:49:22;;;;;;;;;;;21.20;57.20;;;16.70;79.34;96016.75;4974752;28;19918;-50
2023/10/11 07:51:58;;;;;;;;;;;21.70;56.70;;;17.15;76.35;96022.53;4975106;28;19910;-51
2023/10/11 07:54:26;;;;;;;;;;;22.30;56.30;;;17.48;72.92;96016.00;4972806;28;20407;-50
2023/10/11 07:56:57;;;;;;;;;;;22.80;55.70;;;17.92;70.57;96019.22;4974883;28;19909;-55
2023/10/11 07:59:28;;;;;;;;;;;23.30;55.20;;;18.31;68.91;96015.19;4966408;28;19944;-51
2023/10/11 08:01:59;;;;;;;;;;;23.80;54.70;;;18.69;66.70;96018.38;4974762;28;19910;-52
2023/10/11 08:04:29;;;;;;;;;;;24.20;54.20;;;19.12;66.26;96004.41;4966431;28;20411;-54
2023/10/11 08:07:03;;;;;;;;;;;24.70;53.70;;;19.57;63.63;96017.84;4973737;28;20284;-48
2023/10/11 08:09:45;;;;;;;;;;;25.20;53.90;;;20.06;60.42;96011.34;4974740;28;19940;-43
2023/10/11 08:12:24;;;;;;;;;;;25.60;52.80;;;20.57;60.42;96014.47;4972449;28;20000;-48
2023/10/11 08:14:56;;;;;;;;;;;26.10;52.30;;;20.96;57.85;96010.78;4974938;28;20013;-45
2023/10/11 08:17:22;;;;;;;;;;;26.50;51.80;;;21.25;56.38;96006.63;4973881;28;19917;-47
2023/10/11 08:19:53;;;;;;;;;;;26.80;51.20;;;21.44;55.44;96007.06;4963776;28;19914;-44
2023/10/11 08:22:20;;;;;;;;;;;27.20;50.50;;;21.70;54.65;96014.31;4973879;28;20300;-46
2023/10/11 08:24:52;;;;;;;;;;;27.50;50.00;;;21.95;53.26;96012.59;4980421;28;19939;-47
2023/10/11 08:30:09;;;;;;;;;;;27.90;48.80;;;22.10;52.18;96008.53;4984743;28;19916;-45
2023/10/11 08:32:42;;;;;;;;;;;28.10;48.50;;;22.29;51.88;96017.06;4978177;28;19909;-46
2023/10/11 08:35:31;;;;;;;;;;;28.30;48.30;;;22.64;51.24;96016.81;4976804;28;20499;-45
2023/10/11 08:38:04;;;;;;;;;;;28.60;48.10;;;22.89;51.08;96009.59;4976774;28;19910;-49
2023/10/11 08:40:37;;;;;;;;;;;28.80;47.70;;;23.12;51.12;96014.69;4973101;28;20308;-48
2023/10/11 08:43:04;;;;;;;;;;;29.10;47.40;;;23.40;50.54;96012.94;4965643;28;19918;-45
2023/10/11 08:46:05;;;;;;;;;;;29.40;47.20;;;23.82;49.82;96012.00;4970331;28;20391;-45
2023/10/11 08:48:38;;;;;;;;;;;29.70;46.90;;;24.11;47.28;96008.28;4965710;28;19968;-47
2023/10/11 08:51:11;;;;;;;;;;;30.00;46.60;;;24.39;47.84;96003.72;4968305;28;19914;-46
2023/10/11 08:53:54;;;;;;;;;;;30.30;46.20;;;24.56;47.05;96004.63;4973040;28;19909;-46
2023/10/11 08:56:23;;;;;;;;;;;30.50;45.80;;;24.61;47.66;96005.16;4973618;28;19909;-47
2023/10/11 08:58:53;;;;;;;;;;;30.70;45.30;;;24.82;46.94;96007.72;4973619;28;19910;-46
2023/10/11 09:01:24;;;;;;;;;;;30.90;45.00;;;25.01;46.72;96003.53;4973876;28;19964;-45
2023/10/11 09:04:07;;;;;;;;;;;31.10;44.80;;;25.23;46.35;96010.41;4973802;28;20400;-47
2023/10/11 09:06:37;;;;;;;;;;;31.30;44.60;;;25.27;46.21;96005.84;4968102;28;19913;-47
2023/10/11 09:09:03;;;;;;;;;;;31.60;44.40;;;25.27;45.60;96012.09;4973222;28;19941;-46
2023/10/11 09:11:30;;;;;;;;;;;31.70;44.00;;;25.14;46.04;96005.13;4972821;28;19936;-49
2023/10/11 09:14:23;;;;;;;;;;;31.90;43.60;;;25.03;45.50;96001.28;4973312;28;19947;-45
2023/10/11 09:16:50;;;;;;;;;;;31.90;43.20;;;25.21;45.38;96005.31;4972519;28;19913;-50
2023/10/11 09:19:19;;;;;;;;;;;32.10;43.10;;;25.48;45.13;96008.34;4979534;28;20089;-48
2023/10/11 09:22:18;;;;;;;;;;;32.10;42.80;;;25.59;45.03;96009.41;4973206;28;20288;-46
2023/10/11 09:24:44;;;;;;;;;;;32.30;42.60;;;25.64;44.66;96008.38;4967032;28;20156;-48
2023/10/11 09:29:46;;;;;;;;;;;32.60;42.10;;;25.82;43.03;95999.53;4971642;28;19967;-47
2023/10/11 09:32:13;;;;;;;;;;;32.80;41.90;;;25.98;43.63;96009.59;4973097;28;19913;-49
2023/10/11 09:34:43;;;;;;;;;;;32.90;41.60;;;25.96;41.90;96006.47;4973279;28;19913;-46
2023/10/11 09:37:12;;;;;;;;;;;33.00;41.20;;;26.21;41.54;96012.50;4972431;28;19917;-45
2023/10/11 09:39:40;;;;;;;;;;;33.20;40.90;;;26.28;42.24;96004.47;4972960;28;19916;-46
2023/10/11 09:42:12;;;;;;;;;;;33.30;40.50;;;26.10;41.75;96012.25;4970151;28;19909;-48
2023/10/11 09:44:40;;;;;;;;;;;33.40;40.20;;;26.39;41.58;96004.72;4971991;28;19924;-49
2023/10/11 09:47:16;;;;;;;;;;;33.50;40.10;;;26.43;41.21;96008.31;4971987;28;19921;-48
2023/10/11 09:49:43;;;;;;;;;;;33.60;39.60;;;26.72;41.31;96009.75;4973010;28;19913;-47
2023/10/11 09:52:17;;;;;;;;;;;33.70;39.30;;;26.69;41.11;96008.50;4972831;28;20298;-45
2023/10/11 09:54:45;;;;;;;;;;;33.70;38.60;;;26.88;41.13;96015.94;4972083;28;19943;-48
2023/10/11 09:57:50;;;;;;;;;;;33.70;38.70;;;27.04;41.20;96015.84;4972955;28;19949;-45
2023/10/11 10:00:40;;;;;;;;;;;33.80;38.60;;;27.27;40.16;96021.44;4950587;28;19952;-47
2023/10/11 10:03:12;;;;;;;;;;;34.10;38.50;;;27.47;39.91;96022.19;4971830;28;19965;-48
2023/10/11 10:06:18;;;;;;;;;;;34.30;38.20;;;26.80;40.04;96019.69;4971996;28;20435;-48
2023/10/11 10:09:04;;;;;;;;;;;34.40;37.60;;;26.53;40.77;96003.09;4966825;28;19968;-47
2023/10/11 10:12:09;;;;;;;;;;;34.40;37.30;;;26.70;40.83;96006.56;4965611;28;19910;-46
2023/10/11 10:14:41;;;;;;;;;;;34.40;37.20;;;26.60;40.46;96005.19;4912927;28;19910;-51
2023/10/11 10:17:10;;;;;;;;;;;34.40;37.10;;;26.72;40.67;96007.00;4969888;28;20360;-46
2023/10/11 10:19:43;;;;;;;;;;;34.50;36.90;;;27.16;40.73;96004.81;4972904;28;20343;-48
2023/10/11 10:22:15;;;;;;;;;;;34.50;36.80;;;27.54;39.62;96016.81;4972632;28;19910;-46
2023/10/11 10:24:43;;;;;;;;;;;34.70;36.90;;;27.62;39.25;96010.34;4967787;28;20379;-48
2023/10/11 10:27:33;;;;;;;;;;;35.00;36.90;;;27.64;39.32;96004.47;4972521;28;19936;-48
2023/10/11 10:30:04;;;;;;;;;;;35.10;36.60;;;27.82;38.80;96000.13;4971654;28;19914;-49
2023/10/11 10:32:31;;;;;;;;;;;35.30;36.50;;;27.87;38.94;95994.38;4977600;28;19917;-50
2023/10/11 10:35:18;;;;;;;;;;;35.40;36.20;;;27.86;39.13;96001.00;4975364;28;20380;-46
2023/10/11 10:37:50;;;;;;;;;;;35.60;36.00;;;27.93;38.50;95996.81;4968251;28;19921;-46
2023/10/11 10:40:27;;;;;;;;;;;35.60;35.40;;;27.72;38.82;95999.94;4972863;28;19980;-50
2023/10/11 10:43:19;;;;;;;;;;;35.60;35.30;;;27.76;39.07;95993.34;4972263;28;19972;-50
2023/10/11 10:45:53;;;;;;;;;;;35.70;35.10;;;27.73;38.80;95994.09;4967865;28;19910;-51
2023/10/11 10:48:23;;;;;;;;;;;35.70;35.00;;;27.93;38.14;95989.38;4971308;28;19957;-48
2023/10/11 10:51:04;;;;;;;;;;;35.80;34.80;;;28.32;38.08;95983.69;4972732;28;19917;-51
2023/10/11 10:53:53;;;;;;;;;;;35.90;34.80;;;28.43;37.05;95981.16;4968750;28;19917;-49
2023/10/11 10:56:25;;;;;;;;;;;36.10;34.70;;;28.60;37.38;95975.88;4974001;28;19909;-52
2023/10/11 10:59:14;;;;;;;;;;;36.30;34.70;;;28.74;36.67;95974.50;4974990;28;20380;-52
2023/10/11 11:01:44;;;;;;;;;;;36.50;34.40;;;28.67;36.88;95972.44;4974160;28;20416;-50
2023/10/11 11:04:18;;;;;;;;;;;36.60;34.20;;;28.46;36.31;95955.75;4975839;28;19910;-52
2023/10/11 11:06:50;;;;;;;;;;;36.70;33.90;;;28.63;37.12;95957.91;4973855;28;19960;-48
2023/10/11 11:09:27;;;;;;;;;;;36.80;34.20;;;28.96;36.85;95954.41;4975768;28;20046;-51
2023/10/11 11:12:14;;;;;;;;;;;36.90;33.50;;;29.06;36.27;95952.97;4974855;28;19910;-51
2023/10/11 11:14:55;;;;;;;;;;;37.10;33.60;;;29.20;36.01;95944.88;4973582;28;19933;-48
2023/10/11 11:17:45;;;;;;;;;;;37.30;33.30;;;29.64;35.21;95940.63;4974858;28;19982;-52
2023/10/11 11:22:52;;;;;;;;;;;37.50;32.80;;;30.10;33.79;95940.97;4981192;28;20328;-49
2023/10/11 11:28:07;;;;;;;;;;;38.00;32.60;;;30.49;33.61;95926.66;4982778;28;19921;-50
2023/10/11 11:30:33;;;;;;;;;;;38.10;32.30;;;30.52;34.09;95925.13;4974440;28;19952;-51
2023/10/11 11:33:13;;;;;;;;;;;38.20;31.90;;;30.61;33.13;95922.81;4979881;28;20435;-58
2023/10/11 11:35:54;;;;;;;;;;;38.40;32.00;;;30.48;32.88;95916.88;4977823;28;19910;-44
2023/10/11 11:38:21;;;;;;;;;;;38.60;31.80;;;30.65;32.89;95913.41;4978844;28;19929;-56
2023/10/11 11:40:59;;;;;;;;;;;38.60;31.60;;;30.70;32.76;95912.25;4980563;28;20376;-54
2023/10/11 11:43:33;;;;;;;;;;;38.80;31.40;;;30.77;32.56;95908.72;4975580;28;20282;-55
2023/10/11 11:46:03;;;;;;;;;;;38.80;31.30;;;30.82;31.92;95902.88;4979959;28;19921;-53
2023/10/11 11:48:40;;;;;;;;;;;39.00;31.30;;;30.77;32.52;95901.28;4976948;28;19928;-56
2023/10/11 11:51:13;;;;;;;;;;;39.10;30.90;;;31.07;32.05;95894.69;4979529;28;19909;-55
2023/10/11 11:53:45;;;;;;;;;;;39.10;30.40;;;31.03;31.82;95902.94;4992332;28;20411;-56
2023/10/11 11:56:12;;;;;;;;;;;39.20;30.40;;;31.05;31.98;95894.28;4993428;28;20434;-56
2023/10/11 11:58:45;;;;;;;;;;;39.30;30.40;;;31.36;31.57;95890.03;4993546;28;19909;-54
2023/10/11 12:01:19;;;;;;;;;;;39.40;30.30;;;31.16;31.77;95886.06;4979895;28;19917;-53
2023/10/11 12:03:54;;;;;;;;;;;39.50;30.00;;;31.36;31.49;95886.50;4992308;28;20327;-48
2023/10/11 12:06:23;;;;;;;;;;;39.60;29.90;;;30.78;31.31;95886.38;4990371;28;19909;-49
2023/10/11 12:09:02;;;;;;;;;;;39.60;29.80;;;30.94;31.66;95877.78;4991483;28;19936;-48
2023/10/11 12:11:30;;;;;;;;;;;39.60;29.80;;;31.18;31.54;95881.75;4991333;28;19914;-50
2023/10/11 12:14:03;;;;;;;;;;;39.70;29.50;;;31.23;30.54;95875.06;4993020;28;20020;-48
2023/10/11 12:16:29;;;;;;;;;;;39.70;29.40;;;31.47;30.08;95871.59;4993572;28;20435;-45
2023/10/11 12:19:01;;;;;;;;;;;39.70;29.40;;;31.48;29.32;95875.91;4984897;28;20004;-45
2023/10/11 12:21:28;;;;;;;;;;;39.90;29.40;;;31.66;29.32;95875.91;4972344;28;19909;-46
2023/10/11 12:23:54;;;;;;;;;;;40.00;29.40;;;31.85;28.34;95877.44;4985536;28;19914;-45
2023/10/11 12:26:20;;;;;;;;;;;40.20;29.30;;;32.08;28.47;95876.25;4992440;28;19913;-44
2023/10/11 12:28:48;;;;;;;;;;;40.30;29.10;;;32.18;28.90;95869.91;4993510;28;19913;-47
2023/10/11 12:31:18;;;;;;;;;;;40.40;29.10;;;32.39;28.62;95869.84;4983043;28;19920;-45
2023/10/11 12:33:44;;;;;;;;;;;40.50;29.00;;;32.52;27.53;95866.69;4992428;28;20331;-47
2023/10/11 12:36:11;;;;;;;;;;;40.70;28.90;;;32.43;27.34;95861.56;4991174;28;19910;-45
2023/10/11 12:38:38;;;;;;;;;;;40.80;28.70;;;32.30;27.57;95858.47;4993567;28;19909;-47
2023/10/11 12:41:05;;;;;;;;;;;40.80;28.40;;;32.45;28.04;95853.72;4991676;28;19909;-46
2023/10/11 12:43:32;;;;;;;;;;;40.90;28.20;;;32.56;27.78;95854.47;4989150;28;20283;-45
2023/10/11 12:46:00;;;;;;;;;;;40.90;28.20;;;32.82;28.19;95853.16;4993502;28;19960;-49
2023/10/11 12:48:26;;;;;;;;;;;40.90;28.10;;;33.03;27.18;95852.25;4989919;28;19913;-46
2023/10/11 12:50:52;;;;;;;;;;;41.00;28.10;;;32.79;27.89;95845.69;4993368;28;20328;-47
2023/10/11 12:53:18;;;;;;;;;;;41.10;27.80;;;32.84;27.02;95839.72;4991486;28;20287;-45
2023/10/11 12:55:49;;;;;;;;;;;41.10;27.70;;;33.04;26.59;95833.72;4993443;28;19916;-49
2023/10/11 12:58:18;;;;;;;;;;;41.10;27.80;;;33.11;26.99;95828.16;4993228;28;20364;-47